Terminal Aerodrome Forecast
Issued by NWS

Home | Current Version | Previous Version | Text Only | Print | Product List | Glossary On
Versions: 1 2 3 4 5 6 7 8 9 10 11 12 13 14 15 16 17 18 19 20 21 22 23 24 25 26 27 28 29 30 31 32 33 34
829
FTUS45 KGJT 240540
TAFMTJ
TAF
KMTJ 240540Z 2406/2506 14012G20KT P6SM SCT120 BKN250
     FM240800 13006KT P6SM SCT120 BKN200
     FM241800 32005KT P6SM SCT090 BKN150
     FM242100 23008KT P6SM VCTS BKN080CB OVC120
     FM250000 15012G20KT P6SM VCTS BKN060CB OVC090=

USA.gov is the U.S. government's official web portal to all federal, state and local government web resources and services.